createdAt,value
2023-04-16T00:00:37.292Z,37.60
2023-04-16T00:03:04.172Z,38.00
2023-04-16T00:05:30.841Z,41.08
2023-04-16T00:07:57.224Z,33.70
2023-04-16T00:10:23.683Z,35.58
2023-04-16T00:12:50.041Z,37.38
2023-04-16T00:15:16.377Z,35.80
2023-04-16T00:17:42.794Z,37.35
2023-04-16T00:20:09.766Z,35.75
2023-04-16T00:22:36.139Z,38.85
2023-04-16T00:25:02.485Z,40.65
2023-04-16T00:27:28.918Z,40.65
2023-04-16T00:29:55.390Z,39.30
2023-04-16T00:32:21.813Z,41.58
2023-04-16T00:34:48.220Z,41.17
2023-04-16T00:37:14.623Z,42.08
2023-04-16T00:39:40.964Z,39.97
2023-04-16T00:42:07.328Z,46.45
2023-04-16T00:44:36.552Z,42.83
2023-04-16T00:47:03.373Z,41.90
2023-04-16T00:49:31.006Z,34.20
2023-04-16T00:51:57.616Z,38.63
2023-04-16T00:54:25.291Z,43.72
2023-04-16T00:56:51.839Z,45.85
2023-04-16T00:59:18.561Z,44.38
2023-04-16T01:01:44.954Z,41.58
2023-04-16T01:04:11.530Z,47.90
2023-04-16T01:06:38.010Z,39.00
2023-04-16T01:09:05.564Z,40.10
2023-04-16T01:11:32.048Z,39.63
2023-04-16T01:13:58.492Z,42.70
2023-04-16T01:16:26.663Z,40.25
2023-04-16T01:18:53.099Z,39.88
2023-04-16T01:21:19.482Z,40.50
2023-04-16T01:23:45.904Z,40.75
2023-04-16T01:26:12.336Z,35.90
2023-04-16T01:28:38.757Z,32.80
2023-04-16T01:31:05.267Z,33.75
2023-04-16T01:33:31.704Z,38.70
2023-04-16T01:35:58.039Z,33.60
2023-04-16T01:38:24.466Z,40.42
2023-04-16T01:40:55.474Z,34.75
2023-04-16T01:43:21.849Z,39.03
2023-04-16T01:45:48.258Z,36.47
2023-04-16T01:48:14.648Z,34.80
2023-04-16T01:50:41.569Z,38.67
2023-04-16T01:53:09.550Z,43.97
2023-04-16T01:55:36.145Z,36.20
2023-04-16T01:58:02.526Z,41.25
2023-04-16T02:00:28.986Z,42.97
2023-04-16T02:02:55.724Z,41.95
2023-04-16T02:05:22.291Z,40.20
2023-04-16T02:07:48.648Z,37.42
2023-04-16T02:10:15.168Z,42.25
2023-04-16T02:12:41.565Z,48.05
2023-04-16T02:15:08.346Z,41.60
2023-04-16T02:17:34.775Z,47.25
2023-04-16T02:20:03.333Z,43.65
2023-04-16T02:22:29.748Z,43.10
2023-04-16T02:24:56.071Z,44.85
2023-04-16T02:27:22.441Z,50.42
2023-04-16T02:29:48.804Z,43.95
2023-04-16T02:32:15.283Z,44.20
2023-04-16T02:34:42.950Z,47.47
2023-04-16T02:37:09.305Z,47.72
2023-04-16T02:39:35.711Z,56.85
2023-04-16T02:42:02.654Z,45.70
2023-04-16T02:44:29.240Z,49.47
2023-04-16T02:46:55.583Z,56.08
2023-04-16T02:49:21.945Z,52.10
2023-04-16T02:51:48.336Z,49.97
2023-04-16T02:54:14.684Z,61.63
2023-04-16T02:56:41.011Z,56.35
2023-04-16T02:59:07.539Z,53.35
2023-04-16T03:01:34.202Z,57.50
2023-04-16T03:04:00.626Z,54.88
2023-04-16T03:06:27.038Z,60.33
2023-04-16T03:08:53.413Z,52.60
2023-04-16T03:11:20.334Z,56.38
2023-04-16T03:13:46.704Z,50.88
2023-04-16T03:16:13.043Z,57.72
2023-04-16T03:18:39.403Z,52.85
2023-04-16T03:21:06.213Z,61.60
2023-04-16T03:23:32.620Z,59.85
2023-04-16T03:25:59.035Z,57.65
2023-04-16T03:28:26.130Z,57.88
2023-04-16T03:30:53.567Z,61.33
2023-04-16T03:33:20.817Z,58.25
2023-04-16T03:35:47.248Z,62.03
2023-04-16T03:38:13.675Z,58.13
2023-04-16T03:40:40.061Z,66.70
2023-04-16T03:43:06.567Z,62.13
2023-04-16T03:45:32.889Z,61.88
2023-04-16T03:47:59.327Z,62.10
2023-04-16T03:50:25.717Z,58.50
2023-04-16T03:52:52.064Z,63.13
2023-04-16T03:55:18.420Z,63.38
2023-04-16T03:57:44.866Z,65.55
2023-04-16T04:00:11.757Z,58.85
2023-04-16T04:02:38.309Z,69.50
2023-04-16T04:05:05.118Z,60.60
2023-04-16T04:07:31.591Z,68.28
2023-04-16T04:09:58.048Z,68.95
2023-04-16T04:12:24.433Z,59.10
2023-04-16T04:14:50.754Z,58.25
2023-04-16T04:17:17.141Z,62.58
2023-04-16T04:19:54.266Z,65.03
2023-04-16T04:22:26.607Z,62.95
2023-04-16T04:24:52.947Z,65.60
2023-04-16T04:27:19.313Z,54.83
2023-04-16T04:29:46.142Z,66.28
2023-04-16T04:32:12.519Z,64.60
2023-04-16T04:34:38.896Z,67.05
2023-04-16T04:37:05.620Z,73.22
2023-04-16T04:39:32.006Z,68.25
2023-04-16T04:41:58.413Z,66.32
2023-04-16T04:44:24.743Z,65.95
2023-04-16T04:46:51.112Z,62.28
2023-04-16T04:49:17.510Z,65.30
2023-04-16T04:51:43.945Z,59.40
2023-04-16T04:54:10.450Z,59.10
2023-04-16T04:56:36.872Z,64.57
2023-04-16T04:59:03.272Z,68.85
2023-04-16T05:01:29.709Z,67.30
2023-04-16T05:03:56.231Z,68.07
2023-04-16T05:06:22.594Z,64.40
2023-04-16T05:08:48.952Z,61.45
2023-04-16T05:11:15.766Z,67.80
2023-04-16T05:13:42.121Z,62.90
2023-04-16T05:16:08.479Z,61.90
2023-04-16T05:18:34.893Z,67.38
2023-04-16T05:21:01.244Z,62.20
2023-04-16T05:23:27.808Z,69.93
2023-04-16T05:25:54.202Z,72.50
2023-04-16T05:28:20.635Z,74.72
2023-04-16T05:30:47.085Z,72.13
2023-04-16T05:33:13.523Z,76.28
2023-04-16T05:35:39.947Z,66.60
2023-04-16T05:38:06.287Z,71.78
2023-04-16T05:40:32.735Z,65.05
2023-04-16T05:42:59.132Z,60.30
2023-04-16T05:45:27.427Z,58.13
2023-04-16T05:47:54.462Z,59.13
2023-04-16T05:50:20.896Z,58.10
2023-04-16T05:52:47.236Z,53.67
2023-04-16T05:55:13.666Z,53.17
2023-04-16T05:57:40.309Z,45.72
2023-04-16T06:00:08.979Z,49.15
2023-04-16T06:02:35.583Z,46.53
2023-04-16T06:05:02.197Z,47.40
2023-04-16T06:07:28.582Z,50.00
2023-04-16T06:09:55.024Z,45.97
2023-04-16T06:12:21.404Z,49.22
2023-04-16T06:14:47.762Z,41.85
2023-04-16T06:17:14.169Z,48.85
2023-04-16T06:19:40.699Z,43.58
2023-04-16T06:22:07.461Z,43.67
2023-04-16T06:24:33.991Z,46.72
2023-04-16T06:27:00.690Z,41.08
2023-04-16T06:29:33.664Z,48.55
2023-04-16T06:32:04.003Z,42.28
2023-04-16T06:34:30.694Z,43.45
2023-04-16T06:36:57.021Z,45.92
2023-04-16T06:39:23.388Z,35.72
2023-04-16T06:41:49.912Z,41.30
2023-04-16T06:44:16.344Z,38.42
2023-04-16T06:46:42.788Z,37.72
2023-04-16T06:49:09.412Z,39.53
2023-04-16T06:51:36.091Z,39.58
2023-04-16T06:54:02.415Z,38.88
2023-04-16T06:56:28.769Z,41.50
2023-04-16T06:58:57.016Z,37.42
2023-04-16T07:01:23.639Z,37.25
2023-04-16T07:03:50.772Z,38.55
2023-04-16T07:06:17.409Z,36.28
2023-04-16T07:08:43.805Z,33.25
2023-04-16T07:11:10.251Z,31.17
2023-04-16T07:13:36.610Z,28.95
2023-04-16T07:16:03.042Z,33.28
2023-04-16T07:18:29.448Z,36.00
2023-04-16T07:20:56.009Z,30.00
2023-04-16T07:23:22.371Z,33.72
2023-04-16T07:25:48.780Z,29.45
2023-04-16T07:28:17.491Z,32.63
2023-04-16T07:30:43.954Z,31.75
2023-04-16T07:33:10.596Z,32.42
2023-04-16T07:35:37.013Z,31.10
2023-04-16T07:38:03.421Z,28.02
2023-04-16T07:40:29.850Z,31.20
2023-04-16T07:42:56.386Z,35.15
2023-04-16T07:45:23.512Z,34.55
2023-04-16T07:47:49.931Z,31.45
2023-04-16T07:50:16.474Z,30.17
2023-04-16T07:52:43.675Z,31.65
2023-04-16T07:55:10.073Z,31.67
2023-04-16T07:57:37.046Z,34.50
2023-04-16T08:00:07.081Z,32.63
2023-04-16T08:02:33.642Z,29.33
2023-04-16T08:05:00.458Z,29.02
2023-04-16T08:07:27.030Z,29.50
2023-04-16T08:09:54.094Z,29.73
2023-04-16T08:12:21.114Z,32.92
2023-04-16T08:14:47.847Z,35.20
2023-04-16T08:17:17.242Z,32.45
2023-04-16T08:19:47.259Z,33.15
2023-04-16T08:22:13.777Z,29.15
2023-04-16T08:24:40.178Z,28.60
2023-04-16T08:27:17.845Z,28.48
2023-04-16T08:29:45.423Z,30.60
2023-04-16T08:32:11.917Z,29.77
2023-04-16T08:34:38.464Z,29.60
2023-04-16T08:37:05.102Z,32.55
2023-04-16T08:39:31.601Z,26.58
2023-04-16T08:41:58.914Z,27.00
2023-04-16T08:44:32.372Z,27.70
2023-04-16T08:46:59.378Z,26.73
2023-04-16T08:49:27.186Z,25.48
2023-04-16T08:51:57.270Z,28.75
2023-04-16T08:54:56.773Z,26.80
2023-04-16T08:57:25.749Z,27.90
2023-04-16T08:59:56.063Z,27.63
2023-04-16T09:02:23.350Z,27.83
2023-04-16T09:04:51.201Z,26.23
2023-04-16T09:07:21.022Z,28.48
2023-04-16T09:09:49.833Z,27.88
2023-04-16T09:12:17.711Z,28.75
2023-04-16T09:14:49.603Z,22.90
2023-04-16T09:17:17.200Z,25.45
2023-04-16T09:19:44.492Z,26.10
2023-04-16T09:22:11.872Z,25.00
2023-04-16T09:24:41.951Z,26.40
2023-04-16T09:27:08.811Z,25.70
2023-04-16T09:29:36.277Z,24.75
2023-04-16T09:32:08.137Z,23.73
2023-04-16T09:34:36.054Z,23.20
2023-04-16T09:37:15.828Z,25.27
2023-04-16T09:39:54.076Z,23.20
2023-04-16T09:42:25.376Z,25.05
2023-04-16T09:44:52.963Z,21.73
2023-04-16T09:47:19.556Z,24.40
2023-04-16T09:49:47.085Z,25.48
2023-04-16T09:52:22.205Z,22.83
2023-04-16T09:54:50.275Z,23.27
2023-04-16T09:57:21.960Z,24.60
2023-04-16T10:00:05.795Z,24.67
2023-04-16T10:02:33.150Z,22.75
2023-04-16T10:05:01.699Z,25.80
2023-04-16T10:07:29.435Z,24.52
2023-04-16T10:09:56.022Z,21.85
2023-04-16T10:12:22.510Z,24.25
2023-04-16T10:14:50.483Z,24.50
2023-04-16T10:17:17.620Z,22.58
2023-04-16T10:19:44.377Z,27.83
2023-04-16T10:22:11.327Z,23.75
2023-04-16T10:24:38.628Z,26.00
2023-04-16T10:27:04.990Z,22.08
2023-04-16T10:29:32.823Z,23.02
2023-04-16T10:31:59.845Z,23.30
2023-04-16T10:34:27.047Z,22.65
2023-04-16T10:36:54.933Z,24.95
2023-04-16T10:39:23.904Z,20.50
2023-04-16T10:42:06.112Z,22.23
2023-04-16T10:44:32.908Z,21.58
2023-04-16T10:46:59.486Z,20.77
2023-04-16T10:49:27.067Z,20.58
2023-04-16T10:52:04.623Z,23.90
2023-04-16T10:54:32.020Z,21.08
2023-04-16T10:57:04.314Z,25.27
2023-04-16T10:59:33.569Z,22.67
2023-04-16T11:02:01.846Z,20.90
2023-04-16T11:04:33.253Z,18.02
2023-04-16T11:07:13.764Z,18.42
2023-04-16T11:09:59.320Z,23.90
2023-04-16T11:12:42.665Z,21.90
2023-04-16T11:15:13.160Z,20.05
2023-04-16T11:17:46.657Z,20.70
2023-04-16T11:20:19.987Z,19.83
2023-04-16T11:22:48.980Z,18.38
2023-04-16T11:25:23.101Z,19.30
2023-04-16T11:27:50.319Z,19.58
2023-04-16T11:30:18.793Z,16.58
2023-04-16T11:32:45.580Z,17.27
2023-04-16T11:35:16.173Z,17.70
2023-04-16T11:37:43.139Z,16.50
2023-04-16T11:40:10.425Z,16.55
2023-04-16T11:42:40.338Z,17.85
2023-04-16T11:45:08.428Z,18.60
2023-04-16T11:47:52.053Z,16.08
2023-04-16T11:50:25.516Z,18.05
2023-04-16T11:52:54.011Z,17.92
2023-04-16T11:55:21.228Z,15.57
2023-04-16T11:57:48.211Z,16.20
2023-04-16T12:00:15.564Z,15.02
2023-04-16T12:02:49.647Z,14.35
2023-04-16T12:05:34.813Z,14.48
2023-04-16T12:08:06.391Z,15.07
2023-04-16T12:10:35.508Z,14.02
2023-04-16T12:13:12.939Z,15.25
2023-04-16T12:15:56.950Z,12.90
2023-04-16T12:18:26.834Z,13.40
2023-04-16T12:20:53.541Z,13.80
2023-04-16T12:23:30.489Z,12.73
2023-04-16T12:26:02.373Z,14.77
2023-04-16T12:28:34.269Z,14.23
2023-04-16T12:31:01.995Z,12.75
2023-04-16T12:33:28.725Z,12.20
2023-04-16T12:35:55.191Z,12.23
2023-04-16T12:38:24.070Z,13.82
2023-04-16T12:40:51.034Z,12.88
2023-04-16T12:43:17.860Z,12.63
2023-04-16T12:45:44.587Z,13.80
2023-04-16T12:48:11.476Z,13.43
2023-04-16T12:50:39.606Z,12.32
2023-04-16T12:53:06.212Z,14.25
2023-04-16T12:55:32.612Z,12.38
2023-04-16T12:57:58.996Z,16.52
2023-04-16T13:00:25.428Z,12.85
2023-04-16T13:02:51.942Z,14.57
2023-04-16T13:05:19.252Z,13.73
2023-04-16T13:07:46.022Z,14.10
2023-04-16T13:10:12.815Z,11.82
2023-04-16T13:12:39.173Z,14.88
2023-04-16T13:15:05.923Z,12.98
2023-04-16T13:17:32.306Z,15.40
2023-04-16T13:19:58.715Z,12.65
2023-04-16T13:22:25.159Z,12.32
2023-04-16T13:24:51.707Z,12.45
2023-04-16T13:27:18.189Z,13.90
2023-04-16T13:29:44.798Z,15.52
2023-04-16T13:32:13.618Z,13.00
2023-04-16T13:34:40.260Z,12.68
2023-04-16T13:37:06.760Z,13.45
2023-04-16T13:39:33.628Z,12.73
2023-04-16T13:42:00.277Z,15.75
2023-04-16T13:44:26.651Z,15.30
2023-04-16T13:46:53.190Z,16.63
2023-04-16T13:49:19.627Z,12.63
2023-04-16T13:51:46.014Z,14.30
2023-04-16T13:54:12.366Z,15.85
2023-04-16T13:56:39.382Z,15.18
2023-04-16T13:59:05.917Z,16.65
2023-04-16T14:01:32.598Z,14.18
2023-04-16T14:04:00.192Z,19.20
2023-04-16T14:06:26.963Z,18.50
2023-04-16T14:08:53.318Z,14.18
2023-04-16T14:11:19.727Z,14.52
2023-04-16T14:13:46.713Z,15.25
2023-04-16T14:16:13.884Z,18.00
2023-04-16T14:18:42.220Z,18.08
2023-04-16T14:21:09.054Z,16.17
2023-04-16T14:23:35.544Z,15.90
2023-04-16T14:26:01.917Z,14.80
2023-04-16T14:28:28.358Z,18.40
2023-04-16T14:30:54.740Z,15.13
2023-04-16T14:33:21.216Z,14.50
2023-04-16T14:35:47.745Z,17.13
2023-04-16T14:38:14.087Z,15.88
2023-04-16T14:40:40.602Z,16.33
2023-04-16T14:43:07.069Z,18.40
2023-04-16T14:45:33.475Z,14.48
2023-04-16T14:47:59.919Z,13.82
2023-04-16T14:50:26.377Z,15.20
2023-04-16T14:52:54.465Z,15.93
2023-04-16T14:55:21.353Z,14.27
2023-04-16T14:57:47.749Z,15.52
2023-04-16T15:00:17.553Z,14.07
2023-04-16T15:02:44.726Z,17.23
2023-04-16T15:05:11.379Z,15.82
2023-04-16T15:07:37.789Z,15.13
2023-04-16T15:10:04.659Z,14.75
2023-04-16T15:12:31.213Z,12.43
2023-04-16T15:14:57.620Z,14.20
2023-04-16T15:17:24.076Z,15.07
2023-04-16T15:19:52.104Z,13.00
2023-04-16T15:22:18.497Z,16.70
2023-04-16T15:24:45.086Z,13.52
2023-04-16T15:27:12.394Z,14.10
2023-04-16T15:29:38.751Z,11.48
2023-04-16T15:32:06.841Z,14.63
2023-04-16T15:34:33.209Z,11.30
2023-04-16T15:36:59.569Z,11.60
2023-04-16T15:39:25.987Z,12.43
2023-04-16T15:44:22.002Z,11.65
2023-04-16T15:46:48.487Z,11.20
2023-04-16T15:49:14.947Z,10.88
2023-04-16T15:51:41.427Z,9.60
2023-04-16T15:54:07.874Z,10.23
2023-04-16T15:56:34.355Z,11.07
2023-04-16T15:59:03.810Z,14.77
2023-04-16T16:01:31.081Z,13.10
2023-04-16T16:03:57.654Z,14.25
2023-04-16T16:06:24.449Z,28.90
2023-04-16T16:08:51.085Z,14.98
2023-04-16T16:11:17.551Z,11.10
2023-04-16T16:13:43.990Z,12.85
2023-04-16T16:16:10.615Z,11.32
2023-04-16T16:18:37.593Z,9.18
2023-04-16T16:21:03.993Z,11.88
2023-04-16T16:23:30.371Z,11.68
2023-04-16T16:25:56.863Z,11.43
2023-04-16T16:28:24.907Z,10.23
2023-04-16T16:30:53.754Z,11.63
2023-04-16T16:33:20.709Z,13.35
2023-04-16T16:35:47.233Z,10.43
2023-04-16T16:38:13.627Z,10.07
2023-04-16T16:40:39.980Z,10.80
2023-04-16T16:43:06.422Z,12.25
2023-04-16T16:45:32.808Z,17.80
2023-04-16T16:47:59.276Z,17.60
2023-04-16T16:50:25.673Z,21.42
2023-04-16T16:52:52.079Z,22.90
2023-04-16T16:55:18.959Z,22.77
2023-04-16T16:57:45.641Z,19.52
2023-04-16T17:00:16.191Z,22.25
2023-04-16T17:02:43.288Z,25.50
2023-04-16T17:05:09.978Z,18.65
2023-04-16T17:07:36.404Z,22.27
2023-04-16T17:10:05.240Z,19.45
2023-04-16T17:12:33.087Z,21.35
2023-04-16T17:14:59.453Z,22.58
2023-04-16T17:17:26.798Z,21.90
2023-04-16T17:19:53.851Z,22.02
2023-04-16T17:22:20.321Z,21.88
2023-04-16T17:24:47.117Z,21.55
2023-04-16T17:27:13.509Z,21.35
2023-04-16T17:29:39.827Z,22.00
2023-04-16T17:32:06.316Z,22.80
2023-04-16T17:34:32.652Z,33.72
2023-04-16T17:36:58.988Z,25.48
2023-04-16T17:39:25.495Z,28.92
2023-04-16T17:41:54.660Z,31.25
2023-04-16T17:44:22.870Z,25.15
2023-04-16T17:46:49.250Z,26.58
2023-04-16T17:49:15.596Z,29.65
2023-04-16T17:51:44.364Z,25.05
2023-04-16T17:54:10.904Z,28.05
2023-04-16T17:56:37.680Z,24.73
2023-04-16T17:59:04.931Z,31.63
2023-04-16T18:01:31.477Z,29.95
2023-04-16T18:03:58.092Z,28.40
2023-04-16T18:06:24.623Z,30.83
2023-04-16T18:08:50.959Z,26.63
2023-04-16T18:11:17.425Z,31.35
2023-04-16T18:13:43.918Z,29.20
2023-04-16T18:16:16.866Z,29.55
2023-04-16T18:18:44.356Z,33.17
2023-04-16T18:21:11.113Z,30.10
2023-04-16T18:23:37.555Z,31.92
2023-04-16T18:26:04.205Z,36.53
2023-04-16T18:28:30.634Z,28.52
2023-04-16T18:30:58.914Z,31.20
2023-04-16T18:33:38.854Z,31.65
2023-04-16T18:36:11.703Z,31.15
2023-04-16T18:38:46.394Z,39.20
2023-04-16T18:41:20.786Z,33.55
2023-04-16T18:43:47.689Z,28.70
2023-04-16T18:46:14.705Z,33.30
2023-04-16T18:48:41.741Z,34.50
2023-04-16T18:51:08.172Z,39.25
2023-04-16T18:53:34.619Z,38.10
2023-04-16T18:56:01.060Z,29.67
2023-04-16T18:58:27.960Z,31.23
2023-04-16T19:00:58.289Z,29.27
2023-04-16T19:03:27.269Z,27.38
2023-04-16T19:05:53.851Z,35.17
2023-04-16T19:08:20.316Z,33.60
2023-04-16T19:10:48.129Z,34.03
2023-04-16T19:13:14.659Z,27.58
2023-04-16T19:15:41.284Z,30.67
2023-04-16T19:18:07.868Z,37.00
2023-04-16T19:20:37.734Z,30.70
2023-04-16T19:23:05.603Z,29.95
2023-04-16T19:25:32.676Z,31.80
2023-04-16T19:27:59.217Z,28.23
2023-04-16T19:30:26.283Z,25.38
2023-04-16T19:32:55.195Z,32.17
2023-04-16T19:35:22.257Z,28.75
2023-04-16T19:37:48.728Z,24.67
2023-04-16T19:40:15.281Z,29.27
2023-04-16T19:42:41.870Z,32.13
2023-04-16T19:45:08.550Z,26.27
2023-04-16T19:47:34.922Z,30.30
2023-04-16T19:50:01.448Z,24.58
2023-04-16T19:52:27.914Z,28.05
2023-04-16T19:54:54.293Z,27.02
2023-04-16T19:57:20.654Z,23.92
2023-04-16T19:59:46.998Z,25.98
2023-04-16T20:02:13.454Z,25.42
2023-04-16T20:04:39.811Z,26.63
2023-04-16T20:07:06.333Z,24.52
2023-04-16T20:09:32.715Z,31.83
2023-04-16T20:11:59.036Z,26.77
2023-04-16T20:14:25.568Z,25.48
2023-04-16T20:16:52.042Z,23.27
2023-04-16T20:19:19.481Z,26.30
2023-04-16T20:21:46.068Z,24.42
2023-04-16T20:24:12.560Z,27.83
2023-04-16T20:26:38.960Z,31.25
2023-04-16T20:29:05.290Z,23.83
2023-04-16T20:31:31.718Z,23.73
2023-04-16T20:33:58.145Z,28.15
2023-04-16T20:36:24.504Z,25.50
2023-04-16T20:38:53.767Z,32.40
2023-04-16T20:41:21.232Z,25.13
2023-04-16T20:43:50.163Z,27.02
2023-04-16T20:46:17.853Z,28.55
2023-04-16T20:48:44.432Z,29.92
2023-04-16T20:51:10.793Z,26.08
2023-04-16T20:53:37.396Z,28.73
2023-04-16T20:56:03.976Z,25.05
2023-04-16T20:58:30.644Z,32.22
2023-04-16T21:00:57.557Z,28.70
2023-04-16T21:03:24.856Z,28.98
2023-04-16T21:05:53.312Z,31.02
2023-04-16T21:08:20.964Z,28.75
2023-04-16T21:10:47.930Z,35.90
2023-04-16T21:13:14.860Z,40.67
2023-04-16T21:15:43.067Z,36.25
2023-04-16T21:18:10.337Z,29.40
2023-04-16T21:20:37.216Z,31.90
2023-04-16T21:23:04.447Z,31.42
2023-04-16T21:25:31.102Z,31.35
2023-04-16T21:27:57.714Z,33.30
2023-04-16T21:30:24.077Z,33.55
2023-04-16T21:32:50.644Z,34.63
2023-04-16T21:35:17.240Z,33.92
2023-04-16T21:37:43.563Z,29.90
2023-04-16T21:40:10.265Z,29.70
2023-04-16T21:42:41.965Z,36.88
2023-04-16T21:45:09.603Z,35.22
2023-04-16T21:47:36.821Z,31.80
2023-04-16T21:50:03.954Z,34.75
2023-04-16T21:52:32.708Z,38.30
2023-04-16T21:55:00.065Z,33.38
2023-04-16T21:57:26.403Z,36.65
2023-04-16T21:59:52.768Z,40.60
2023-04-16T22:02:19.321Z,40.05
2023-04-16T22:04:45.877Z,35.67
2023-04-16T22:07:12.248Z,44.00
2023-04-16T22:09:38.898Z,35.60
2023-04-16T22:12:11.956Z,42.80
2023-04-16T22:14:44.068Z,39.60
2023-04-16T22:17:12.822Z,38.50
2023-04-16T22:19:39.434Z,40.05
2023-04-16T22:22:05.804Z,43.38
2023-04-16T22:24:32.261Z,41.65
2023-04-16T22:26:58.876Z,40.67
2023-04-16T22:29:25.354Z,39.13
2023-04-16T22:31:52.200Z,38.90
2023-04-16T22:34:18.692Z,40.45
2023-04-16T22:36:45.196Z,45.03
2023-04-16T22:39:11.710Z,47.33
2023-04-16T22:41:38.211Z,47.47
2023-04-16T22:44:04.735Z,44.78
2023-04-16T22:46:31.317Z,42.53
2023-04-16T22:48:57.903Z,44.22
2023-04-16T22:51:24.512Z,42.50
2023-04-16T22:53:51.780Z,41.65
2023-04-16T22:56:21.346Z,46.38
2023-04-16T22:58:50.987Z,46.80
2023-04-16T23:01:17.464Z,47.58
2023-04-16T23:03:44.032Z,44.50
2023-04-16T23:06:10.523Z,43.78
2023-04-16T23:08:36.893Z,50.92
2023-04-16T23:11:03.415Z,43.20
2023-04-16T23:13:29.824Z,45.03
2023-04-16T23:15:56.234Z,44.80
2023-04-16T23:18:22.878Z,44.60
2023-04-16T23:20:52.846Z,44.20
2023-04-16T23:23:19.678Z,44.67
2023-04-16T23:25:46.092Z,48.85
2023-04-16T23:28:12.628Z,45.42
2023-04-16T23:30:39.379Z,43.20
2023-04-16T23:33:05.935Z,44.42
2023-04-16T23:35:32.342Z,44.45
2023-04-16T23:37:58.796Z,41.78
2023-04-16T23:40:25.610Z,48.83
2023-04-16T23:42:52.121Z,43.92
2023-04-16T23:45:18.478Z,42.70
2023-04-16T23:47:45.160Z,43.35
2023-04-16T23:50:11.716Z,43.17
2023-04-16T23:52:38.085Z,43.22
2023-04-16T23:55:04.924Z,40.05
2023-04-16T23:57:31.290Z,38.85
2023-04-16T23:59:57.627Z,40.33
